sensor_id;sensor_type;location;lat;lon;timestamp;temperature;humidity
64997;SHT31;51545;51.568;6.998;2023-11-21T00:00:21;8.10;99.99
64997;SHT31;51545;51.568;6.998;2023-11-21T00:02:47;8.09;99.99
64997;SHT31;51545;51.568;6.998;2023-11-21T00:05:13;8.10;99.99
64997;SHT31;51545;51.568;6.998;2023-11-21T00:07:40;8.07;99.99
64997;SHT31;51545;51.568;6.998;2023-11-21T00:10:08;8.04;99.99
64997;SHT31;51545;51.568;6.998;2023-11-21T00:12:35;8.09;99.99
64997;SHT31;51545;51.568;6.998;2023-11-21T00:15:01;8.03;99.99
64997;SHT31;51545;51.568;6.998;2023-11-21T00:17:28;8.07;99.99
64997;SHT31;51545;51.568;6.998;2023-11-21T00:19:54;8.07;99.99
64997;SHT31;51545;51.568;6.998;2023-11-21T00:22:20;8.04;99.99
64997;SHT31;51545;51.568;6.998;2023-11-21T00:24:47;8.04;99.99
64997;SHT31;51545;51.568;6.998;2023-11-21T00:27:13;8.06;99.99
64997;SHT31;51545;51.568;6.998;2023-11-21T00:29:40;8.07;99.99
64997;SHT31;51545;51.568;6.998;2023-11-21T00:32:06;8.09;99.99
64997;SHT31;51545;51.568;6.998;2023-11-21T00:34:32;8.07;99.99
64997;SHT31;51545;51.568;6.998;2023-11-21T00:36:58;8.11;99.99
64997;SHT31;51545;51.568;6.998;2023-11-21T00:39:24;8.04;99.99
64997;SHT31;51545;51.568;6.998;2023-11-21T00:41:51;8.00;99.99
64997;SHT31;51545;51.568;6.998;2023-11-21T00:44:18;8.01;99.99
64997;SHT31;51545;51.568;6.998;2023-11-21T00:46:44;8.01;99.99
64997;SHT31;51545;51.568;6.998;2023-11-21T00:49:10;7.99;99.99
64997;SHT31;51545;51.568;6.998;2023-11-21T00:51:36;8.00;99.99
64997;SHT31;51545;51.568;6.998;2023-11-21T00:54:02;7.99;99.99
64997;SHT31;51545;51.568;6.998;2023-11-21T00:56:28;7.97;99.99
64997;SHT31;51545;51.568;6.998;2023-11-21T00:58:54;7.93;99.99
64997;SHT31;51545;51.568;6.998;2023-11-21T01:01:20;7.96;99.99
64997;SHT31;51545;51.568;6.998;2023-11-21T01:03:49;7.92;99.99
64997;SHT31;51545;51.568;6.998;2023-11-21T01:06:16;7.89;99.99
64997;SHT31;51545;51.568;6.998;2023-11-21T01:08:43;7.86;99.99
64997;SHT31;51545;51.568;6.998;2023-11-21T01:11:09;7.79;99.99
64997;SHT31;51545;51.568;6.998;2023-11-21T01:13:38;7.75;99.99
64997;SHT31;51545;51.568;6.998;2023-11-21T01:16:05;7.70;99.99
64997;SHT31;51545;51.568;6.998;2023-11-21T01:18:32;7.69;99.99
64997;SHT31;51545;51.568;6.998;2023-11-21T01:20:58;7.67;99.99
64997;SHT31;51545;51.568;6.998;2023-11-21T01:23:26;7.72;99.99
64997;SHT31;51545;51.568;6.998;2023-11-21T01:25:54;7.73;99.99
64997;SHT31;51545;51.568;6.998;2023-11-21T01:28:21;7.76;99.99
64997;SHT31;51545;51.568;6.998;2023-11-21T01:30:48;7.75;99.99
64997;SHT31;51545;51.568;6.998;2023-11-21T01:33:14;7.73;99.99
64997;SHT31;51545;51.568;6.998;2023-11-21T01:35:41;7.76;99.99
64997;SHT31;51545;51.568;6.998;2023-11-21T01:38:08;7.76;99.99
64997;SHT31;51545;51.568;6.998;2023-11-21T01:40:34;7.70;99.99
64997;SHT31;51545;51.568;6.998;2023-11-21T01:43:00;7.72;99.99
64997;SHT31;51545;51.568;6.998;2023-11-21T01:45:29;7.67;99.99
64997;SHT31;51545;51.568;6.998;2023-11-21T01:47:59;7.69;99.99
64997;SHT31;51545;51.568;6.998;2023-11-21T01:50:28;7.69;99.99
64997;SHT31;51545;51.568;6.998;2023-11-21T01:52:54;7.67;99.99
64997;SHT31;51545;51.568;6.998;2023-11-21T01:55:21;7.70;99.99
64997;SHT31;51545;51.568;6.998;2023-11-21T01:57:47;7.63;99.99
64997;SHT31;51545;51.568;6.998;2023-11-21T02:00:14;7.59;99.99
64997;SHT31;51545;51.568;6.998;2023-11-21T02:02:47;7.54;99.99
64997;SHT31;51545;51.568;6.998;2023-11-21T02:05:14;7.52;99.99
64997;SHT31;51545;51.568;6.998;2023-11-21T02:07:43;7.55;99.99
64997;SHT31;51545;51.568;6.998;2023-11-21T02:10:13;7.55;99.99
64997;SHT31;51545;51.568;6.998;2023-11-21T02:12:50;7.49;99.99
64997;SHT31;51545;51.568;6.998;2023-11-21T02:15:17;7.42;99.99
64997;SHT31;51545;51.568;6.998;2023-11-21T02:17:47;7.39;99.99
64997;SHT31;51545;51.568;6.998;2023-11-21T02:20:19;7.39;99.99
64997;SHT31;51545;51.568;6.998;2023-11-21T02:22:51;7.39;99.99
64997;SHT31;51545;51.568;6.998;2023-11-21T02:25:27;7.35;99.99
64997;SHT31;51545;51.568;6.998;2023-11-21T02:27:55;7.37;99.99
64997;SHT31;51545;51.568;6.998;2023-11-21T02:30:21;7.34;99.99
64997;SHT31;51545;51.568;6.998;2023-11-21T02:32:48;7.34;99.99
64997;SHT31;51545;51.568;6.998;2023-11-21T02:35:14;7.37;99.99
64997;SHT31;51545;51.568;6.998;2023-11-21T02:37:41;7.41;99.99
64997;SHT31;51545;51.568;6.998;2023-11-21T02:40:10;7.39;99.99
64997;SHT31;51545;51.568;6.998;2023-11-21T02:42:41;7.41;99.99
64997;SHT31;51545;51.568;6.998;2023-11-21T02:45:07;7.37;99.99
64997;SHT31;51545;51.568;6.998;2023-11-21T02:47:34;7.41;99.99
64997;SHT31;51545;51.568;6.998;2023-11-21T02:50:00;7.38;99.99
64997;SHT31;51545;51.568;6.998;2023-11-21T02:52:26;7.39;99.99
64997;SHT31;51545;51.568;6.998;2023-11-21T02:54:52;7.38;99.99
64997;SHT31;51545;51.568;6.998;2023-11-21T02:57:18;7.38;99.99
64997;SHT31;51545;51.568;6.998;2023-11-21T02:59:44;7.37;99.99
64997;SHT31;51545;51.568;6.998;2023-11-21T03:02:10;7.35;99.99
64997;SHT31;51545;51.568;6.998;2023-11-21T03:04:36;7.31;99.99
64997;SHT31;51545;51.568;6.998;2023-11-21T03:07:02;7.34;99.99
64997;SHT31;51545;51.568;6.998;2023-11-21T03:09:30;7.37;99.99
64997;SHT31;51545;51.568;6.998;2023-11-21T03:11:56;7.32;99.99
64997;SHT31;51545;51.568;6.998;2023-11-21T03:14:22;7.31;99.99
64997;SHT31;51545;51.568;6.998;2023-11-21T03:16:48;7.28;99.99
64997;SHT31;51545;51.568;6.998;2023-11-21T03:19:15;7.27;99.99
64997;SHT31;51545;51.568;6.998;2023-11-21T03:21:41;7.24;99.99
64997;SHT31;51545;51.568;6.998;2023-11-21T03:24:07;7.26;99.99
64997;SHT31;51545;51.568;6.998;2023-11-21T03:26:33;7.21;99.99
64997;SHT31;51545;51.568;6.998;2023-11-21T03:28:59;7.20;99.99
64997;SHT31;51545;51.568;6.998;2023-11-21T03:31:25;7.20;99.99
64997;SHT31;51545;51.568;6.998;2023-11-21T03:33:52;7.18;99.99
64997;SHT31;51545;51.568;6.998;2023-11-21T03:36:19;7.14;99.99
64997;SHT31;51545;51.568;6.998;2023-11-21T03:38:48;7.16;99.99
64997;SHT31;51545;51.568;6.998;2023-11-21T03:41:14;7.17;99.99
64997;SHT31;51545;51.568;6.998;2023-11-21T03:43:40;7.23;99.99
64997;SHT31;51545;51.568;6.998;2023-11-21T03:46:06;7.23;99.99
64997;SHT31;51545;51.568;6.998;2023-11-21T03:48:33;7.31;99.99
64997;SHT31;51545;51.568;6.998;2023-11-21T03:50:58;7.34;99.99
64997;SHT31;51545;51.568;6.998;2023-11-21T03:53:24;7.41;99.99
64997;SHT31;51545;51.568;6.998;2023-11-21T03:55:50;7.45;99.99
64997;SHT31;51545;51.568;6.998;2023-11-21T03:58:16;7.48;99.99
64997;SHT31;51545;51.568;6.998;2023-11-21T04:00:42;7.48;99.99
64997;SHT31;51545;51.568;6.998;2023-11-21T04:03:08;7.54;99.99
64997;SHT31;51545;51.568;6.998;2023-11-21T04:05:34;7.55;99.99
64997;SHT31;51545;51.568;6.998;2023-11-21T04:08:00;7.58;99.99
64997;SHT31;51545;51.568;6.998;2023-11-21T04:10:26;7.58;99.99
64997;SHT31;51545;51.568;6.998;2023-11-21T04:12:52;7.56;99.99
64997;SHT31;51545;51.568;6.998;2023-11-21T04:15:18;7.61;99.99
64997;SHT31;51545;51.568;6.998;2023-11-21T04:17:44;7.61;99.99
64997;SHT31;51545;51.568;6.998;2023-11-21T04:20:11;7.63;99.99
64997;SHT31;51545;51.568;6.998;2023-11-21T04:22:37;7.66;99.99
64997;SHT31;51545;51.568;6.998;2023-11-21T04:25:10;7.62;99.99
64997;SHT31;51545;51.568;6.998;2023-11-21T04:27:39;7.73;99.99
64997;SHT31;51545;51.568;6.998;2023-11-21T04:30:06;7.73;99.99
64997;SHT31;51545;51.568;6.998;2023-11-21T04:32:33;7.76;99.99
64997;SHT31;51545;51.568;6.998;2023-11-21T04:34:59;7.76;99.99
64997;SHT31;51545;51.568;6.998;2023-11-21T04:37:25;7.82;99.99
64997;SHT31;51545;51.568;6.998;2023-11-21T04:39:51;7.78;99.99
64997;SHT31;51545;51.568;6.998;2023-11-21T04:42:17;7.73;99.99
64997;SHT31;51545;51.568;6.998;2023-11-21T04:44:43;7.70;99.99
64997;SHT31;51545;51.568;6.998;2023-11-21T04:47:10;7.63;99.99
64997;SHT31;51545;51.568;6.998;2023-11-21T04:49:36;7.52;99.99
64997;SHT31;51545;51.568;6.998;2023-11-21T04:52:02;7.52;99.99
64997;SHT31;51545;51.568;6.998;2023-11-21T04:54:30;7.51;99.99
64997;SHT31;51545;51.568;6.998;2023-11-21T04:56:56;7.49;99.99
64997;SHT31;51545;51.568;6.998;2023-11-21T04:59:22;7.45;99.99
64997;SHT31;51545;51.568;6.998;2023-11-21T05:01:53;7.44;99.99
64997;SHT31;51545;51.568;6.998;2023-11-21T05:04:19;7.41;99.99
64997;SHT31;51545;51.568;6.998;2023-11-21T05:06:49;7.41;99.99
64997;SHT31;51545;51.568;6.998;2023-11-21T05:09:15;7.42;99.99
64997;SHT31;51545;51.568;6.998;2023-11-21T05:11:41;7.38;99.99
64997;SHT31;51545;51.568;6.998;2023-11-21T05:14:07;7.34;99.99
64997;SHT31;51545;51.568;6.998;2023-11-21T05:16:34;7.32;99.99
64997;SHT31;51545;51.568;6.998;2023-11-21T05:19:01;7.34;99.99
64997;SHT31;51545;51.568;6.998;2023-11-21T05:21:27;7.32;99.99
64997;SHT31;51545;51.568;6.998;2023-11-21T05:23:55;7.31;99.99
64997;SHT31;51545;51.568;6.998;2023-11-21T05:26:21;7.26;99.99
64997;SHT31;51545;51.568;6.998;2023-11-21T05:28:47;7.26;99.99
64997;SHT31;51545;51.568;6.998;2023-11-21T05:31:13;7.24;99.99
64997;SHT31;51545;51.568;6.998;2023-11-21T05:33:40;7.23;99.99
64997;SHT31;51545;51.568;6.998;2023-11-21T05:36:06;7.26;99.99
64997;SHT31;51545;51.568;6.998;2023-11-21T05:38:35;7.21;99.99
64997;SHT31;51545;51.568;6.998;2023-11-21T05:41:02;7.23;99.99
64997;SHT31;51545;51.568;6.998;2023-11-21T05:43:30;7.11;99.99
64997;SHT31;51545;51.568;6.998;2023-11-21T05:45:57;7.01;99.99
64997;SHT31;51545;51.568;6.998;2023-11-21T05:48:23;6.93;99.99
64997;SHT31;51545;51.568;6.998;2023-11-21T05:50:51;6.90;99.99
64997;SHT31;51545;51.568;6.998;2023-11-21T05:53:17;6.86;99.99
64997;SHT31;51545;51.568;6.998;2023-11-21T05:55:43;6.90;99.99
64997;SHT31;51545;51.568;6.998;2023-11-21T05:58:09;6.89;99.99
64997;SHT31;51545;51.568;6.998;2023-11-21T06:00:35;6.83;99.99
64997;SHT31;51545;51.568;6.998;2023-11-21T06:03:03;6.83;99.99
64997;SHT31;51545;51.568;6.998;2023-11-21T06:05:34;6.85;99.99
64997;SHT31;51545;51.568;6.998;2023-11-21T06:08:00;6.83;99.99
64997;SHT31;51545;51.568;6.998;2023-11-21T06:10:34;6.83;99.99
64997;SHT31;51545;51.568;6.998;2023-11-21T06:13:00;6.85;99.99
64997;SHT31;51545;51.568;6.998;2023-11-21T06:15:33;6.89;99.99
64997;SHT31;51545;51.568;6.998;2023-11-21T06:18:05;7.00;99.99
64997;SHT31;51545;51.568;6.998;2023-11-21T06:20:37;7.04;99.99
64997;SHT31;51545;51.568;6.998;2023-11-21T06:23:03;7.09;99.99
64997;SHT31;51545;51.568;6.998;2023-11-21T06:25:29;7.01;99.99
64997;SHT31;51545;51.568;6.998;2023-11-21T06:28:01;7.04;99.99
64997;SHT31;51545;51.568;6.998;2023-11-21T06:30:27;7.07;99.99
64997;SHT31;51545;51.568;6.998;2023-11-21T06:32:54;7.11;99.99
64997;SHT31;51545;51.568;6.998;2023-11-21T06:35:21;7.16;99.99
64997;SHT31;51545;51.568;6.998;2023-11-21T06:37:48;7.20;99.99
64997;SHT31;51545;51.568;6.998;2023-11-21T06:40:15;7.23;99.99
64997;SHT31;51545;51.568;6.998;2023-11-21T06:42:41;7.26;99.99
64997;SHT31;51545;51.568;6.998;2023-11-21T06:45:07;7.26;99.99
64997;SHT31;51545;51.568;6.998;2023-11-21T06:47:36;7.28;99.99
64997;SHT31;51545;51.568;6.998;2023-11-21T06:50:03;7.34;99.99
64997;SHT31;51545;51.568;6.998;2023-11-21T06:52:30;7.35;99.99
64997;SHT31;51545;51.568;6.998;2023-11-21T06:54:56;7.38;99.99
64997;SHT31;51545;51.568;6.998;2023-11-21T06:57:22;7.44;99.99
64997;SHT31;51545;51.568;6.998;2023-11-21T06:59:49;7.44;99.99
64997;SHT31;51545;51.568;6.998;2023-11-21T07:02:16;7.49;99.99
64997;SHT31;51545;51.568;6.998;2023-11-21T07:04:46;7.52;99.99
64997;SHT31;51545;51.568;6.998;2023-11-21T07:07:12;7.49;99.99
64997;SHT31;51545;51.568;6.998;2023-11-21T07:09:38;7.51;99.99
64997;SHT31;51545;51.568;6.998;2023-11-21T07:12:05;7.49;99.99
64997;SHT31;51545;51.568;6.998;2023-11-21T07:14:33;7.55;99.99
64997;SHT31;51545;51.568;6.998;2023-11-21T07:17:00;7.58;99.99
64997;SHT31;51545;51.568;6.998;2023-11-21T07:19:26;7.54;99.99
64997;SHT31;51545;51.568;6.998;2023-11-21T07:21:52;7.54;99.99
64997;SHT31;51545;51.568;6.998;2023-11-21T07:24:18;7.52;99.99
64997;SHT31;51545;51.568;6.998;2023-11-21T07:26:44;7.54;99.99
64997;SHT31;51545;51.568;6.998;2023-11-21T07:29:10;7.48;99.99
64997;SHT31;51545;51.568;6.998;2023-11-21T07:31:38;7.49;99.99
64997;SHT31;51545;51.568;6.998;2023-11-21T07:34:06;7.52;99.99
64997;SHT31;51545;51.568;6.998;2023-11-21T07:36:33;7.56;99.99
64997;SHT31;51545;51.568;6.998;2023-11-21T07:38:59;7.59;99.99
64997;SHT31;51545;51.568;6.998;2023-11-21T07:41:28;7.62;99.99
64997;SHT31;51545;51.568;6.998;2023-11-21T07:43:55;7.62;99.99
64997;SHT31;51545;51.568;6.998;2023-11-21T07:46:21;7.66;99.99
64997;SHT31;51545;51.568;6.998;2023-11-21T07:48:49;7.70;99.99
64997;SHT31;51545;51.568;6.998;2023-11-21T07:51:15;7.70;99.99
64997;SHT31;51545;51.568;6.998;2023-11-21T07:53:42;7.75;99.99
64997;SHT31;51545;51.568;6.998;2023-11-21T07:56:08;7.75;99.99
64997;SHT31;51545;51.568;6.998;2023-11-21T07:58:35;7.76;99.99
64997;SHT31;51545;51.568;6.998;2023-11-21T08:01:02;7.82;99.99
64997;SHT31;51545;51.568;6.998;2023-11-21T08:03:29;7.85;99.99
64997;SHT31;51545;51.568;6.998;2023-11-21T08:05:58;7.89;99.99
64997;SHT31;51545;51.568;6.998;2023-11-21T08:08:25;7.87;99.99
64997;SHT31;51545;51.568;6.998;2023-11-21T08:10:52;7.96;99.99
64997;SHT31;51545;51.568;6.998;2023-11-21T08:13:25;8.01;99.99
64997;SHT31;51545;51.568;6.998;2023-11-21T08:15:55;8.03;99.99
64997;SHT31;51545;51.568;6.998;2023-11-21T08:18:30;7.99;99.99
64997;SHT31;51545;51.568;6.998;2023-11-21T08:20:57;7.93;99.99
64997;SHT31;51545;51.568;6.998;2023-11-21T08:23:24;7.97;99.99
64997;SHT31;51545;51.568;6.998;2023-11-21T08:25:53;8.00;99.99
64997;SHT31;51545;51.568;6.998;2023-11-21T08:28:19;8.01;99.99
64997;SHT31;51545;51.568;6.998;2023-11-21T08:30:51;8.10;99.99
64997;SHT31;51545;51.568;6.998;2023-11-21T08:33:19;8.14;99.99
64997;SHT31;51545;51.568;6.998;2023-11-21T08:35:45;8.11;99.99
64997;SHT31;51545;51.568;6.998;2023-11-21T08:38:12;8.17;99.99
64997;SHT31;51545;51.568;6.998;2023-11-21T08:40:38;8.27;99.99
64997;SHT31;51545;51.568;6.998;2023-11-21T08:43:04;8.32;99.99
64997;SHT31;51545;51.568;6.998;2023-11-21T08:45:30;8.32;99.99
64997;SHT31;51545;51.568;6.998;2023-11-21T08:47:59;8.41;99.99
64997;SHT31;51545;51.568;6.998;2023-11-21T08:50:26;8.44;99.99
64997;SHT31;51545;51.568;6.998;2023-11-21T08:52:52;8.48;99.99
64997;SHT31;51545;51.568;6.998;2023-11-21T08:55:18;8.48;99.99
64997;SHT31;51545;51.568;6.998;2023-11-21T08:57:45;8.48;99.99
64997;SHT31;51545;51.568;6.998;2023-11-21T09:00:14;8.57;99.99
64997;SHT31;51545;51.568;6.998;2023-11-21T09:02:42;8.60;99.99
64997;SHT31;51545;51.568;6.998;2023-11-21T09:05:09;8.55;99.99
64997;SHT31;51545;51.568;6.998;2023-11-21T09:07:38;8.50;99.99
64997;SHT31;51545;51.568;6.998;2023-11-21T09:10:05;8.41;99.99
64997;SHT31;51545;51.568;6.998;2023-11-21T09:12:35;8.41;99.99
64997;SHT31;51545;51.568;6.998;2023-11-21T09:15:03;8.48;99.99
64997;SHT31;51545;51.568;6.998;2023-11-21T09:17:34;8.41;99.99
64997;SHT31;51545;51.568;6.998;2023-11-21T09:20:00;8.37;99.99
64997;SHT31;51545;51.568;6.998;2023-11-21T09:22:27;8.38;99.99
64997;SHT31;51545;51.568;6.998;2023-11-21T09:24:57;8.37;99.99
64997;SHT31;51545;51.568;6.998;2023-11-21T09:27:23;8.37;99.99
64997;SHT31;51545;51.568;6.998;2023-11-21T09:29:51;8.34;99.99
64997;SHT31;51545;51.568;6.998;2023-11-21T09:32:21;8.34;99.99
64997;SHT31;51545;51.568;6.998;2023-11-21T09:34:48;8.35;99.99
64997;SHT31;51545;51.568;6.998;2023-11-21T09:37:14;8.41;99.99
64997;SHT31;51545;51.568;6.998;2023-11-21T09:39:40;8.45;99.99
64997;SHT31;51545;51.568;6.998;2023-11-21T09:42:09;8.55;99.99
64997;SHT31;51545;51.568;6.998;2023-11-21T09:44:44;8.55;99.99
64997;SHT31;51545;51.568;6.998;2023-11-21T09:47:17;8.55;99.99
64997;SHT31;51545;51.568;6.998;2023-11-21T09:49:49;8.59;99.99
64997;SHT31;51545;51.568;6.998;2023-11-21T09:52:27;8.66;99.99
64997;SHT31;51545;51.568;6.998;2023-11-21T09:54:53;8.62;99.99
64997;SHT31;51545;51.568;6.998;2023-11-21T09:57:24;8.65;99.92
64997;SHT31;51545;51.568;6.998;2023-11-21T09:59:51;8.93;99.99
64997;SHT31;51545;51.568;6.998;2023-11-21T10:02:24;8.86;99.72
64997;SHT31;51545;51.568;6.998;2023-11-21T10:04:54;8.92;99.64
64997;SHT31;51545;51.568;6.998;2023-11-21T10:07:20;8.93;99.78
64997;SHT31;51545;51.568;6.998;2023-11-21T10:09:49;8.89;99.50
64997;SHT31;51545;51.568;6.998;2023-11-21T10:12:17;8.90;99.53
64997;SHT31;51545;51.568;6.998;2023-11-21T10:14:46;8.83;99.49
64997;SHT31;51545;51.568;6.998;2023-11-21T10:17:14;8.87;99.53
64997;SHT31;51545;51.568;6.998;2023-11-21T10:19:46;8.90;99.59
64997;SHT31;51545;51.568;6.998;2023-11-21T10:22:15;8.97;99.68
64997;SHT31;51545;51.568;6.998;2023-11-21T10:24:42;8.94;99.42
64997;SHT31;51545;51.568;6.998;2023-11-21T10:27:09;9.03;99.44
64997;SHT31;51545;51.568;6.998;2023-11-21T10:29:35;9.17;99.57
64997;SHT31;51545;51.568;6.998;2023-11-21T10:32:02;9.24;99.29
64997;SHT31;51545;51.568;6.998;2023-11-21T10:34:28;9.27;98.95
64997;SHT31;51545;51.568;6.998;2023-11-21T10:36:55;9.15;98.83
64997;SHT31;51545;51.568;6.998;2023-11-21T10:39:23;9.43;98.98
64997;SHT31;51545;51.568;6.998;2023-11-21T10:41:56;9.46;98.76
64997;SHT31;51545;51.568;6.998;2023-11-21T10:44:22;9.53;98.60
64997;SHT31;51545;51.568;6.998;2023-11-21T10:46:50;9.56;98.58
64997;SHT31;51545;51.568;6.998;2023-11-21T10:49:25;9.59;98.55
64997;SHT31;51545;51.568;6.998;2023-11-21T10:51:55;9.49;98.18
64997;SHT31;51545;51.568;6.998;2023-11-21T10:54:24;9.38;98.03
64997;SHT31;51545;51.568;6.998;2023-11-21T10:56:58;9.39;98.21
64997;SHT31;51545;51.568;6.998;2023-11-21T10:59:29;9.34;97.96
64997;SHT31;51545;51.568;6.998;2023-11-21T11:01:57;9.35;97.89
64997;SHT31;51545;51.568;6.998;2023-11-21T11:04:27;9.45;97.77
64997;SHT31;51545;51.568;6.998;2023-11-21T11:07:02;9.62;97.87
64997;SHT31;51545;51.568;6.998;2023-11-21T11:09:31;9.52;97.33
64997;SHT31;51545;51.568;6.998;2023-11-21T11:11:59;9.57;97.48
64997;SHT31;51545;51.568;6.998;2023-11-21T11:14:27;9.69;97.59
64997;SHT31;51545;51.568;6.998;2023-11-21T11:16:54;9.60;97.08
64997;SHT31;51545;51.568;6.998;2023-11-21T11:19:24;9.67;97.32
64997;SHT31;51545;51.568;6.998;2023-11-21T11:27:30;9.83;96.17
64997;SHT31;51545;51.568;6.998;2023-11-21T11:32:51;9.53;95.98
64997;SHT31;51545;51.568;6.998;2023-11-21T11:35:53;9.66;96.37
64997;SHT31;51545;51.568;6.998;2023-11-21T11:38:27;9.65;96.62
64997;SHT31;51545;51.568;6.998;2023-11-21T11:40:58;9.49;96.29
64997;SHT31;51545;51.568;6.998;2023-11-21T11:43:32;9.45;96.80
64997;SHT31;51545;51.568;6.998;2023-11-21T11:45:59;9.38;96.87
64997;SHT31;51545;51.568;6.998;2023-11-21T11:48:29;9.35;97.04
64997;SHT31;51545;51.568;6.998;2023-11-21T11:51:28;9.35;97.22
64997;SHT31;51545;51.568;6.998;2023-11-21T11:53:47;9.38;97.63
64997;SHT31;51545;51.568;6.998;2023-11-21T11:56:27;9.36;97.45
64997;SHT31;51545;51.568;6.998;2023-11-21T11:59:00;9.18;97.54
64997;SHT31;51545;51.568;6.998;2023-11-21T12:01:30;9.22;97.68
64997;SHT31;51545;51.568;6.998;2023-11-21T12:07:06;9.22;98.00
64997;SHT31;51545;51.568;6.998;2023-11-21T12:09:32;9.24;97.85
64997;SHT31;51545;51.568;6.998;2023-11-21T12:11:59;9.22;98.04
64997;SHT31;51545;51.568;6.998;2023-11-21T12:14:26;9.17;97.99
64997;SHT31;51545;51.568;6.998;2023-11-21T12:16:54;9.20;98.17
64997;SHT31;51545;51.568;6.998;2023-11-21T12:19:20;9.22;98.19
64997;SHT31;51545;51.568;6.998;2023-11-21T12:21:47;9.28;98.35
64997;SHT31;51545;51.568;6.998;2023-11-21T12:24:15;9.24;98.30
64997;SHT31;51545;51.568;6.998;2023-11-21T12:26:42;9.22;98.36
64997;SHT31;51545;51.568;6.998;2023-11-21T12:29:09;9.15;98.31
64997;SHT31;51545;51.568;6.998;2023-11-21T12:31:36;9.18;98.52
64997;SHT31;51545;51.568;6.998;2023-11-21T12:34:02;9.18;98.75
64997;SHT31;51545;51.568;6.998;2023-11-21T12:36:29;9.21;98.70
64997;SHT31;51545;51.568;6.998;2023-11-21T12:38:56;9.28;98.81
64997;SHT31;51545;51.568;6.998;2023-11-21T12:41:22;9.27;98.72
64997;SHT31;51545;51.568;6.998;2023-11-21T12:43:48;9.25;98.99
64997;SHT31;51545;51.568;6.998;2023-11-21T12:46:14;9.29;99.05
64997;SHT31;51545;51.568;6.998;2023-11-21T12:48:42;9.28;99.33
64997;SHT31;51545;51.568;6.998;2023-11-21T12:51:11;9.29;99.38
64997;SHT31;51545;51.568;6.998;2023-11-21T12:53:39;9.27;99.36
64997;SHT31;51545;51.568;6.998;2023-11-21T12:56:13;9.17;99.51
64997;SHT31;51545;51.568;6.998;2023-11-21T12:58:44;9.18;99.63
64997;SHT31;51545;51.568;6.998;2023-11-21T13:01:13;9.17;99.66
64997;SHT31;51545;51.568;6.998;2023-11-21T13:03:47;9.18;99.88
64997;SHT31;51545;51.568;6.998;2023-11-21T13:06:16;9.24;99.87
64997;SHT31;51545;51.568;6.998;2023-11-21T13:08:44;9.24;99.85
64997;SHT31;51545;51.568;6.998;2023-11-21T13:11:11;9.21;99.98
64997;SHT31;51545;51.568;6.998;2023-11-21T13:13:40;9.20;99.99
64997;SHT31;51545;51.568;6.998;2023-11-21T13:16:10;9.21;99.99
64997;SHT31;51545;51.568;6.998;2023-11-21T13:18:36;9.22;99.99
64997;SHT31;51545;51.568;6.998;2023-11-21T13:21:07;9.22;99.99
64997;SHT31;51545;51.568;6.998;2023-11-21T13:23:41;9.20;99.99
64997;SHT31;51545;51.568;6.998;2023-11-21T13:26:08;9.17;99.99
64997;SHT31;51545;51.568;6.998;2023-11-21T13:28:35;9.40;99.99
64997;SHT31;51545;51.568;6.998;2023-11-21T13:31:03;9.31;99.99
64997;SHT31;51545;51.568;6.998;2023-11-21T13:33:35;9.32;99.99
64997;SHT31;51545;51.568;6.998;2023-11-21T13:36:08;9.39;99.99
64997;SHT31;51545;51.568;6.998;2023-11-21T13:38:35;9.35;99.88
64997;SHT31;51545;51.568;6.998;2023-11-21T13:41:07;9.34;99.43
64997;SHT31;51545;51.568;6.998;2023-11-21T13:43:37;9.34;99.13
64997;SHT31;51545;51.568;6.998;2023-11-21T13:46:04;9.39;99.16
64997;SHT31;51545;51.568;6.998;2023-11-21T13:48:42;9.40;99.20
64997;SHT31;51545;51.568;6.998;2023-11-21T13:51:16;9.42;99.04
64997;SHT31;51545;51.568;6.998;2023-11-21T13:53:54;9.45;98.93
64997;SHT31;51545;51.568;6.998;2023-11-21T13:56:20;9.50;99.04
64997;SHT31;51545;51.568;6.998;2023-11-21T13:58:51;9.46;98.66
64997;SHT31;51545;51.568;6.998;2023-11-21T14:01:18;9.50;99.01
64997;SHT31;51545;51.568;6.998;2023-11-21T14:03:56;9.49;98.89
64997;SHT31;51545;51.568;6.998;2023-11-21T14:06:52;9.43;98.88
64997;SHT31;51545;51.568;6.998;2023-11-21T14:09:21;9.29;98.06
64997;SHT31;51545;51.568;6.998;2023-11-21T14:11:57;9.28;97.97
64997;SHT31;51545;51.568;6.998;2023-11-21T14:14:25;9.28;97.96
64997;SHT31;51545;51.568;6.998;2023-11-21T14:16:58;9.22;97.99
64997;SHT31;51545;51.568;6.998;2023-11-21T14:19:24;9.21;98.10
64997;SHT31;51545;51.568;6.998;2023-11-21T14:21:57;9.20;98.09
64997;SHT31;51545;51.568;6.998;2023-11-21T14:24:23;9.22;97.92
64997;SHT31;51545;51.568;6.998;2023-11-21T14:26:50;9.24;97.45
64997;SHT31;51545;51.568;6.998;2023-11-21T14:29:17;9.28;97.41
64997;SHT31;51545;51.568;6.998;2023-11-21T14:31:46;9.28;97.07
64997;SHT31;51545;51.568;6.998;2023-11-21T14:34:12;9.28;96.99
64997;SHT31;51545;51.568;6.998;2023-11-21T14:36:40;9.28;96.81
64997;SHT31;51545;51.568;6.998;2023-11-21T14:39:08;9.28;96.71
64997;SHT31;51545;51.568;6.998;2023-11-21T14:41:54;9.29;96.39
64997;SHT31;51545;51.568;6.998;2023-11-21T14:44:27;9.28;96.07
64997;SHT31;51545;51.568;6.998;2023-11-21T14:47:03;9.27;95.93
64997;SHT31;51545;51.568;6.998;2023-11-21T14:49:43;9.24;96.17
64997;SHT31;51545;51.568;6.998;2023-11-21T14:52:21;9.20;96.07
64997;SHT31;51545;51.568;6.998;2023-11-21T14:55:00;9.20;95.88
64997;SHT31;51545;51.568;6.998;2023-11-21T14:58:05;9.12;96.01
64997;SHT31;51545;51.568;6.998;2023-11-21T15:00:40;9.18;95.94
64997;SHT31;51545;51.568;6.998;2023-11-21T15:03:12;9.14;96.02
64997;SHT31;51545;51.568;6.998;2023-11-21T15:05:57;9.17;96.34
64997;SHT31;51545;51.568;6.998;2023-11-21T15:08:25;9.08;95.84
64997;SHT31;51545;51.568;6.998;2023-11-21T15:10:57;9.08;95.70
64997;SHT31;51545;51.568;6.998;2023-11-21T15:13:23;9.04;95.48
64997;SHT31;51545;51.568;6.998;2023-11-21T15:15:53;9.03;95.44
64997;SHT31;51545;51.568;6.998;2023-11-21T15:18:26;9.03;95.79
64997;SHT31;51545;51.568;6.998;2023-11-21T15:20:52;8.90;95.40
64997;SHT31;51545;51.568;6.998;2023-11-21T15:23:20;8.86;95.41
64997;SHT31;51545;51.568;6.998;2023-11-21T15:25:46;8.80;95.57
64997;SHT31;51545;51.568;6.998;2023-11-21T15:28:12;8.80;95.53
64997;SHT31;51545;51.568;6.998;2023-11-21T15:30:38;8.73;95.24
64997;SHT31;51545;51.568;6.998;2023-11-21T15:33:03;8.69;95.29
64997;SHT31;51545;51.568;6.998;2023-11-21T15:35:30;8.67;95.54
64997;SHT31;51545;51.568;6.998;2023-11-21T15:37:58;8.57;95.70
64997;SHT31;51545;51.568;6.998;2023-11-21T15:40:25;8.56;95.70
64997;SHT31;51545;51.568;6.998;2023-11-21T15:42:51;8.52;95.94
64997;SHT31;51545;51.568;6.998;2023-11-21T15:45:17;8.48;95.94
64997;SHT31;51545;51.568;6.998;2023-11-21T15:47:49;8.45;96.02
64997;SHT31;51545;51.568;6.998;2023-11-21T15:50:15;8.42;95.89
64997;SHT31;51545;51.568;6.998;2023-11-21T15:52:41;8.39;95.93
64997;SHT31;51545;51.568;6.998;2023-11-21T15:55:09;8.37;95.58
64997;SHT31;51545;51.568;6.998;2023-11-21T15:57:36;8.31;95.47
64997;SHT31;51545;51.568;6.998;2023-11-21T16:00:02;8.24;95.61
64997;SHT31;51545;51.568;6.998;2023-11-21T16:02:43;8.22;95.96